Flight Track Log - Related Links

Times and Time Zones

All times are in EDT time to prevent confusion due to time zone crossing. See the UAL252 flight status page for this flight to view local times or setup timezone preferences in your user account.

Time Position Orientation Groundspeed Altitude Reporting Facility
EDT Latitude Longitude Course Direction KTS MPH feet Rate Location/Type
01:32PM 33.9350 -118.4511 59° Northeast 177 204 1,700  Level Los Angeles Center
01:33PM 33.9072 -118.5397 249° West 242 278 4,900 2,880 Climbing Los Angeles Center
01:34PM 34.1239 -118.0856 59° Northeast  Level FlightAware Approximate
01:34PM 33.8650 -118.6056 232° Southwest 259 298 7,700  Level Los Angeles Center
01:35PM 34.1895 -117.9544 59° Northeast  Level FlightAware Approximate
01:35PM 33.8369 -118.5383 117° Southeast 282 325 10,000  Level Los Angeles Center
01:36PM 34.2658 -117.8342 40° Northeast  Level FlightAware Approximate
01:36PM 33.9128 -118.4586 41° Northeast 346 398 10,700  Level Los Angeles Center
01:37PM 34.3317 -117.7032 59° Northeast  Level FlightAware Approximate
01:38PM 33.9689 -118.3728 52° Northeast 380 437 12,800  Level Los Angeles Center
01:39PM 34.0464 -118.2375 55° Northeast 404 465 14,900 1,935 Climbing Los Angeles Center
01:40PM 34.1117 -118.1203 56° Northeast 416 479 16,800 1,588 Climbing Los Angeles Center
01:41PM 34.1797 -118.0006 55° Northeast 429 494 18,500 1,577 Climbing Los Angeles Center
01:42PM 34.2633 -117.8519 56° Northeast 442 509 20,400 1,488 Climbing Los Angeles Center
01:43PM 34.3361 -117.7222 56° Northeast 460 529 21,600 1,500 Climbing Los Angeles Center
01:44PM 34.4136 -117.5792 57° Northeast 479 551 23,500 1,452 Climbing Los Angeles Center
01:45PM 34.4869 -117.4469 56° Northeast 478 550 24,600 1,056 Climbing Los Angeles Center
01:46PM 34.5681 -117.3139 53° Northeast 492 566 25,700 1,296 Climbing Los Angeles Center
01:47PM 34.6778 -117.1631 48° Northeast 500 575 27,300 1,645 Climbing Los Angeles Center
01:48PM 34.7686 -117.0350 49° Northeast 502 578 29,100 1,694 Climbing Los Angeles Center
01:49PM 34.8578 -116.9106 49° Northeast 494 568 30,800 919 Climbing Los Angeles Center
01:50PM 34.9464 -116.7867 49° Northeast 489 563 31,000 532 Climbing Los Angeles Center
01:51PM 35.0356 -116.6581 50° Northeast 497 572 31,900 919 Climbing Los Angeles Center
01:52PM 35.1456 -116.5042 49° Northeast 502 578 32,900 532 Climbing Los Angeles Center
01:53PM 35.2392 -116.3731 49° Northeast 511 588 33,000 48 Climbing Los Angeles Center
01:54PM 35.3306 -116.2433 49° Northeast 505 581 33,000  Level Los Angeles Center
01:55PM 35.4203 -116.1122 50° Northeast 504 580 33,000  Level Los Angeles Center
01:56PM 35.5144 -115.9819 48° Northeast 510 587 33,000  Level Los Angeles Center
01:57PM 35.6097 -115.8431 50° Northeast 508 585 33,000  Level Los Angeles Center
01:58PM 35.7006 -115.7108 50° Northeast 508 585 33,000 480 Level Los Angeles Center
01:59PM 35.8108 -115.5506 50° Northeast 513 590 34,000 905 Climbing Los Angeles Center
02:01PM 35.9028 -115.4169 50° Northeast 516 594 34,900 480 Climbing Los Angeles Center
02:02PM 35.9953 -115.2833 49° Northeast 517 595 35,000 48 Climbing Los Angeles Center
02:03PM 36.1022 -115.1217 51° Northeast 513 590 35,000  Level Los Angeles Center
02:04PM 36.1872 -114.9769 54° Northeast 517 595 35,000  Level Los Angeles Center
02:05PM 36.2719 -114.8303 54° Northeast 522 601 35,000  Level Los Angeles Center
02:06PM 36.3572 -114.6844 54° Northeast 524 603 35,000  Level Los Angeles Center
02:07PM 36.4425 -114.5378 54° Northeast 525 604 35,000  Level Los Angeles Center
02:08PM 36.5431 -114.3617 55° Northeast 524 603 35,000 -48 Level Los Angeles Center
02:09PM 36.6267 -114.2161 54° Northeast 521 600 34,900  Descending Los Angeles Center
02:10PM 36.7111 -114.0683 54° Northeast 522 601 35,000 48 Climbing Los Angeles Center
02:11PM 36.7950 -113.9197 55° Northeast 523 602 35,000  Level Los Angeles Center
02:12PM 36.8797 -113.7703 55° Northeast 525 604 35,000  Level Los Angeles Center
02:13PM 36.9650 -113.6194 55° Northeast 528 608 35,000  Level Los Angeles Center
02:14PM 37.0664 -113.4383 55° Northeast 530 610 35,000  Level Los Angeles Center
02:15PM 37.1497 -113.2889 55° Northeast 527 606 35,000  Level Los Angeles Center
02:16PM 37.2331 -113.1392 55° Northeast 525 604 35,000  Level Los Angeles Center
02:17PM 37.3156 -112.9881 56° Northeast 525 604 35,000  Level Los Angeles Center
02:18PM 37.3836 -112.8247 62° Northeast 529 609 35,000  Level Los Angeles Center
02:19PM 37.4597 -112.6256 64° Northeast 529 609 35,000  Level Los Angeles Center
02:20PM 37.5231 -112.4636 64° Northeast 521 600 35,000 97 Level Los Angeles Center
02:21PM 37.5850 -112.2981 65° Northeast 521 600 35,200 581 Climbing Los Angeles Center
02:22PM 37.6456 -112.1311 65° Northeast 523 602 36,200 768 Climbing Los Angeles Center
02:23PM 37.7078 -111.9653 65° Northeast 523 602 36,800 384 Climbing Los Angeles Center
02:24PM 37.7769 -111.7794 65° Northeast 519 597 37,000 86 Climbing Los Angeles Center
02:26PM 37.8578 -111.5647 64° Northeast 516 594 37,000  Level Salt Lake Center
02:27PM 37.9167 -111.3975 66° East 521 600 37,000  Level Denver Center
02:28PM 37.9833 -111.2128 65° Northeast 517 595 37,000  Level Denver Center
02:29PM 38.0411 -111.0553 65° Northeast 515 593 37,000 -48 Level Denver Center
02:30PM 38.1064 -110.8711 66° East 515 593 36,900  Descending Denver Center
02:31PM 38.1650 -110.7158 64° Northeast 512 589 37,000  Climbing Salt Lake Center
02:32PM 38.2211 -110.5569 66° East 514 592 36,900  Descending Salt Lake Center
02:33PM 38.2861 -110.3714 66° East 514 592 37,000 48 Climbing Salt Lake Center
02:34PM 38.3414 -110.2131 66° East 513 590 37,000  Level Salt Lake Center
02:35PM 38.4050 -110.0247 67° East 515 593 37,000  Level Denver Center
02:36PM 38.4700 -109.8397 66° East 514 592 37,000  Level Denver Center
02:37PM 38.5258 -109.6792 66° East 515 593 37,000  Level Denver Center
02:38PM 38.5894 -109.4892 67° East 520 598 37,000  Level Denver Center
02:39PM 38.6436 -109.3281 67° East 517 595 37,000  Level Denver Center
02:40PM 38.7078 -109.1414 66° East 514 592 37,000 -48 Level Denver Center
02:41PM 38.7611 -108.9819 67° East 510 587 36,900  Descending Denver Center
02:42PM 38.8239 -108.7964 66° East 509 586 37,000 97 Climbing Denver Center
02:43PM 38.8761 -108.6406 67° East 501 577 37,100  Climbing Denver Center
02:44PM 38.9372 -108.4569 67° East 503 579 37,000 -96 Descending Denver Center
02:45PM 38.9892 -108.2989 67° East 509 586 36,900  Descending Denver Center
02:46PM 39.0494 -108.1142 67° East 502 578 37,000 32 Climbing Denver Center
02:48PM 39.1030 -107.9469 68° East  Level FlightAware Approximate
02:48PM 39.1600 -107.7753 68° East 496 571 37,000  Level Denver Center
02:50PM 39.2100 -107.6169 68° East 498 573 37,000  Level Denver Center
02:51PM 39.2689 -107.4358 67° East 491 565 37,000  Level Denver Center
02:52PM 39.3181 -107.2811 68° East 489 563 37,000  Level Denver Center
02:53PM 39.3753 -107.1003 68° East 486 559 37,000 -48 Level Denver Center
02:54PM 39.4228 -106.9467 68° East 484 557 36,900  Descending Denver Center
02:55PM 39.4614 -106.7872 73° East 486 559 37,000 48 Climbing Denver Center
02:56PM 39.4981 -106.5978 76° East 485 558 37,000  Level Denver Center
02:57PM 39.5292 -106.4392 76° East 482 555 37,000  Level Denver Center
02:58PM 39.5619 -106.2711 76° East 481 554 37,000  Level Denver Center
02:59PM 39.5975 -106.0897 76° East 479 551 37,000  Level Denver Center
03:00PM 39.6292 -105.9225 76° East 478 550 37,000  Level Denver Center
03:01PM 39.6675 -105.7203 76° East 481 554 37,000 -48 Level Denver Center
03:02PM 39.6983 -105.5539 76° East 473 544 36,900  Descending Denver Center
03:03PM 39.7281 -105.3853 77° East 476 548 37,000 48 Climbing Denver Center
03:04PM 39.7583 -105.2164 77° East 476 548 37,000  Level Denver Center
03:05PM 39.7900 -105.0450 76° East 478 550 37,000  Level Denver Center
03:06PM 39.8211 -104.8742 77° East 478 550 37,000  Level Denver Center
03:07PM 39.8514 -104.7022 77° East 480 552 37,000  Level Denver Center
03:08PM 39.8822 -104.5275 77° East 496 571 37,000  Level Denver Center
03:09PM 39.9178 -104.3206 77° East 491 565 37,000  Level Denver Center
03:10PM 39.9461 -104.1544 77° East 468 539 37,000  Level Denver Center
03:11PM 39.9756 -103.9831 77° East 478 550 37,000  Level Denver Center
03:12PM 40.0036 -103.8156 78° East 464 534 37,000  Level Denver Center
03:13PM 40.0325 -103.6467 77° East 459 528 37,000  Level Denver Center
03:14PM 40.0608 -103.4750 78° East 480 552 37,000  Level Denver Center
03:15PM 40.0947 -103.2717 78° East 478 550 37,000  Level Denver Center
03:16PM 40.1214 -103.1028 78° East 476 548 37,000  Level Denver Center
03:17PM 40.1500 -102.9347 77° East 475 547 37,000  Level Denver Center
03:18PM 40.1758 -102.7669 79° East 473 544 37,000  Level Denver Center
03:20PM 40.2028 -102.5983 78° East 473 544 37,000  Level Denver Center
03:21PM 40.2292 -102.4306 78° East 473 544 37,000  Level Denver Center
03:22PM 40.2597 -102.2289 79° East 472 543 37,000  Level Denver Center
03:23PM 40.2850 -102.0594 79° East 475 547 37,000  Level Denver Center
03:24PM 40.3119 -101.8906 78° East 475 547 37,000  Level Denver Center
03:25PM 40.3378 -101.7206 79° East 477 549 37,000  Level Denver Center
03:26PM 40.3650 -101.5383 79° East 477 549 37,000  Level Denver Center
03:27PM 40.3897 -101.3667 79° East 479 551 37,000  Level Denver Center
03:28PM 40.4150 -101.1964 79° East 477 549 37,000  Level Denver Center
03:29PM 40.4389 -101.0261 80° East 475 547 37,000  Level Denver Center
03:30PM 40.4642 -100.8558 79° East 475 547 37,000  Level Denver Center
03:31PM 40.4986 -100.6533 77° East 475 547 37,000  Level Denver Center
03:32PM 40.5272 -100.4833 77° East 477 549 37,000  Level Denver Center
03:33PM 40.5558 -100.3125 78° East 478 550 37,000  Level Denver Center
03:34PM 40.5825 -100.1417 78° East 478 550 37,000  Level Denver Center
03:35PM 40.6103 -99.9700 78° East 479 551 37,000  Level Denver Center
03:36PM 40.6378 -99.7994 78° East 479 551 37,000  Level Denver Center
03:37PM 40.6700 -99.5914 78° East 484 557 37,000  Level Denver Center
03:38PM 40.6972 -99.4183 78° East 485 558 37,000  Level Denver Center
03:39PM 40.7239 -99.2453 78° East 484 557 37,000  Level Denver Center
03:40PM 40.7503 -99.0708 79° East 486 559 37,000  Level Denver Center
03:41PM 40.7772 -98.8919 79° East 484 557 37,000  Level Denver Center
03:42PM 40.8014 -98.7278 79° East 482 555 37,000  Level Denver Center
03:43PM 40.8314 -98.5200 79° East 486 559 37,000  Level Denver Center
03:45PM 40.8667 -98.2806 79° East 482 555 37,000  Level Minneapolis Center
03:46PM 40.8914 -98.1083 79° East 480 552 37,000  Level Minneapolis Center
03:47PM 40.9161 -97.9358 79° East 480 552 37,000  Level Minneapolis Center
03:48PM 40.9400 -97.7611 80° East 482 555 37,000  Level Minneapolis Center
03:49PM 40.9644 -97.5875 79° East 482 555 37,000 48 Level Minneapolis Center
03:50PM 40.9875 -97.4114 80° East 485 558 37,100  Climbing Minneapolis Center
03:51PM 41.0136 -97.2200 80° East 484 557 37,000 -48 Descending Minneapolis Center
03:52PM 41.0361 -97.0464 80° East 482 555 37,000  Level Minneapolis Center
03:53PM 41.0603 -96.8725 80° East 482 555 37,000  Level Minneapolis Center
03:54PM 41.0833 -96.6969 80° East 484 557 37,000  Level Minneapolis Center
03:55PM 41.1114 -96.4856 80° East 486 559 37,000  Level Minneapolis Center
03:56PM 41.1314 -96.3233 81° East 487 560 37,000  Level Minneapolis Center
03:57PM 41.1544 -96.1444 80° East 492 566 37,000  Level Minneapolis Center
03:58PM 41.1736 -95.9667 82° East 487 560 37,000  Level Minneapolis Center
03:59PM 41.1997 -95.7536 81° East 488 562 37,000  Level Minneapolis Center
04:00PM 41.2231 -95.5714 80° East 490 564 37,000  Level Minneapolis Center
04:01PM 41.2447 -95.3967 81° East 485 558 37,000  Level Minneapolis Center
04:02PM 41.2658 -95.2197 81° East 484 557 37,000  Level Minneapolis Center
04:03PM 41.2856 -95.0447 81° East 483 556 37,000  Level Minneapolis Center
04:04PM 41.3053 -94.8700 81° East 480 552 37,000  Level Minneapolis Center
04:05PM 41.3286 -94.6589 82° East 480 552 37,000  Level Minneapolis Center
04:06PM 41.3483 -94.4842 81° East 480 552 37,000  Level Minneapolis Center
04:07PM 41.3675 -94.3103 82° East 478 550 37,000  Level Minneapolis Center
04:08PM 41.3858 -94.1311 82° East 477 549 37,000  Level Minneapolis Center
04:09PM 41.4042 -93.9578 82° East 476 548 37,000  Level Minneapolis Center
04:10PM 41.4228 -93.7844 82° East 475 547 37,000  Level Minneapolis Center
04:11PM 41.4406 -93.6106 82° East 476 548 37,000  Level Minneapolis Center
04:12PM 41.4592 -93.4344 82° East 479 551 37,000 48 Level Minneapolis Center
04:14PM 41.4783 -93.2261 83° East 477 549 37,100 435 Climbing Minneapolis Center
04:15PM 41.4950 -93.0514 83° East 477 549 37,900 871 Climbing Minneapolis Center
04:16PM 41.5103 -92.8758 83° East 479 551 38,900 532 Climbing Minneapolis Center
04:17PM 41.5269 -92.7003 83° East 479 551 39,000 54 Climbing Minneapolis Center
04:17PM 41.5400 -92.5514 83° East 472 543 39,000  Level Chicago Center
04:18PM 41.5544 -92.3739 84° East 480 552 39,000  Level Chicago Center
04:20PM 41.5703 -92.2011 83° East 478 550 39,000  Level Chicago Center
04:21PM 41.5881 -91.9944 83° East 477 549 39,000  Level Chicago Center
04:22PM 41.6025 -91.8208 84° East 476 548 39,000  Level Chicago Center
04:23PM 41.6156 -91.6481 84° East 474 545 39,000  Level Chicago Center
04:24PM 41.6306 -91.4747 83° East 474 545 39,000  Level Chicago Center
04:25PM 41.6461 -91.2647 84° East 479 551 39,000  Level Chicago Center
04:26PM 41.6600 -91.0900 84° East 480 552 39,000  Level Chicago Center
04:27PM 41.6725 -90.9144 84° East 480 552 39,000  Level Chicago Center
04:28PM 41.6856 -90.7392 84° East 480 552 39,000  Level Chicago Center
04:29PM 41.7003 -90.5367 84° East 482 555 39,000  Level Chicago Center
04:30PM 41.7125 -90.3583 85° East 480 552 39,000 -48 Level Chicago Center
04:31PM 41.7258 -90.1819 84° East 477 549 38,900  Descending Chicago Center
04:32PM 41.7375 -90.0036 85° East 479 551 39,000 48 Climbing Chicago Center
04:33PM 41.7500 -89.8214 85° East 486 559 39,000  Level Chicago Center
04:34PM 41.7611 -89.6339 85° East 496 571 39,000  Level Chicago Center
04:35PM 41.7719 -89.4183 86° East 486 559 39,000  Level Chicago Center
04:36PM 41.7850 -89.2331 85° East 498 573 39,000  Level Chicago Center
04:37PM 41.7953 -89.0494 86° East 495 570 39,000  Level Chicago Center
04:38PM 41.8064 -88.8647 85° East 498 573 39,000  Level Chicago Center
04:39PM 41.8164 -88.6806 86° East 499 574 39,000  Level Chicago Center
04:40PM 41.8275 -88.4600 86° East 496 571 39,000  Level Chicago Center
04:41PM 41.8372 -88.2753 86° East 495 570 39,000  Level Chicago Center
04:42PM 41.8464 -88.0917 86° East 489 563 39,000  Level Chicago Center
04:43PM 41.8556 -87.9069 86° East 494 568 39,000  Level Chicago Center
04:44PM 41.8633 -87.7225 87° East 494 568 39,000  Level Chicago Center
04:45PM 41.8719 -87.5381 86° East 496 571 39,000  Level Chicago Center
04:46PM 41.8817 -87.3167 87° East 496 571 39,000  Level Chicago Center
04:47PM 41.8886 -87.1311 87° East 498 573 39,000  Level Chicago Center
04:48PM 41.8961 -86.9475 87° East 495 570 39,000  Level Chicago Center
04:50PM 41.9031 -86.7644 87° East 493 567 39,000  Level Chicago Center
04:51PM 41.9097 -86.5667 87° East 495 570 39,000  Level Chicago Center
04:52PM 41.9164 -86.3822 87° East 495 570 39,000  Level Chicago Center
04:53PM 41.9231 -86.2003 87° East 491 565 39,000  Level Chicago Center
04:54PM 41.9289 -86.0158 88° East 493 567 39,000  Level Chicago Center
04:55PM 41.9344 -85.8319 88° East 492 566 39,000  Level Chicago Center
04:56PM 41.9411 -85.6094 88° East 493 567 39,000  Level Chicago Center
04:57PM 41.9464 -85.4239 88° East 492 566 39,000  Level Chicago Center
04:58PM 41.9514 -85.2408 88° East 487 560 39,000  Level Chicago Center
04:59PM 41.9522 -85.0594 90° East 483 556 39,000  Level Chicago Center
05:00PM 41.9508 -84.8778 91° East 484 557 39,000  Level Chicago Center
05:01PM 41.9483 -84.6956 91° East 489 563 39,000  Level Chicago Center
05:02PM 41.9472 -84.5122 90° East 489 563 39,000  Level Chicago Center
05:03PM 41.9489 -84.3303 89° East 480 552 39,000  Level Cleveland Center
05:04PM 41.9425 -84.1317 92° East 480 552 39,000  Level Cleveland Center
05:05PM 41.9378 -83.9442 92° East 485 558 39,000  Level Cleveland Center
05:06PM 41.9367 -83.7628 90° East 490 564 39,000  Level Cleveland Center
05:07PM 41.9314 -83.5753 92° East 490 564 39,000  Level Cleveland Center
05:08PM 41.9319 -83.3911 90° East 495 570 39,000  Level Cleveland Center
05:09PM 41.9319 -83.2069 90° East 495 570 39,000  Level Cleveland Center
05:10PM 41.9278 -83.0169 92° East 495 570 39,000  Level Cleveland Center
05:11PM 41.9275 -82.8328 90° East 495 570 39,000  Level Cleveland Center
05:12PM 41.9267 -82.6456 90° East 495 570 39,000  Level Cleveland Center
05:13PM 41.9236 -82.4614 91° East 495 570 39,000  Level Cleveland Center
05:14PM 41.9222 -82.2856 91° East 503 579 39,000  Level Cleveland Center
05:15PM 41.9228 -82.1069 90° East 498 573 39,000  Level Cleveland Center
05:16PM 41.9189 -81.9114 91° East 498 573 39,000  Level Cleveland Center
05:17PM 41.9064 -81.7047 95° East 503 579 39,000  Level Cleveland Center
05:18PM 41.8894 -81.5147 97° East 503 579 39,000  Level Cleveland Center
05:19PM 41.8722 -81.3250 97° East 508 585 39,000  Level Cleveland Center
05:20PM 41.8544 -81.1378 97° East 503 579 39,000  Level Cleveland Center
05:21PM 41.8383 -80.9511 97° East 503 579 39,000  Level Cleveland Center
05:22PM 41.8181 -80.7642 98° East 503 579 39,000  Level Cleveland Center
05:23PM 41.8017 -80.5969 97° East 503 579 39,000  Level Cleveland Center
05:24PM 41.7847 -80.4161 97° East 498 573 39,000  Level Cleveland Center
05:25PM 41.7656 -80.2325 98° East 504 580 39,000  Level Cleveland Center
05:26PM 41.7461 -80.0517 98° East 499 574 39,000  Level Cleveland Center
05:27PM 41.7283 -79.8681 97° East 499 574 39,000  Level Cleveland Center
05:28PM 41.7106 -79.6847 97° East 499 574 39,000  Level Cleveland Center
05:29PM 41.6903 -79.5042 98° East 499 574 39,000  Level Cleveland Center
05:30PM 41.6717 -79.3211 98° East 499 574 39,000  Level Cleveland Center
05:31PM 41.6486 -79.1353 99° East 499 574 39,000  Level Cleveland Center
05:32PM 41.6294 -78.9525 98° East 499 574 39,000 -250 Level Cleveland Center
05:33PM 41.6081 -78.7669 99° East 504 580 38,500 -750 Descending Cleveland Center
05:34PM 41.5861 -78.5761 99° East 504 580 37,500 -1,000 Descending Cleveland Center
05:35PM 41.5636 -78.3853 99° East 510 587 36,500 -950 Descending Cleveland Center
05:36PM 41.5411 -78.1972 99° East 510 587 35,600 -970 Descending Cleveland Center
05:37PM 41.5244 -78.0644 99° East 508 585 34,900 -1,010 Descending New York Center
05:38PM 41.5000 -77.8844 100° East 509 586 33,900 -934 Descending New York Center
05:39PM 41.4753 -77.7044 100° East 495 570 33,000 -454 Descending New York Center
05:40PM 41.4500 -77.5275 101° East 489 563 33,000  Level New York Center
05:41PM 41.4225 -77.3475 101° East 489 563 33,000 -661 Level New York Center
05:42PM 41.3969 -77.1681 101° East 489 563 31,700 -1,983 Descending New York Center
05:43PM 41.3672 -76.9853 102° East 495 570 29,100 -2,213 Descending New York Center
05:44PM 41.3428 -76.8092 100° East 490 564 27,200 -1,884 Descending New York Center
05:45PM 41.3031 -76.6453 108° East 479 551 25,300 -1,866 Descending New York Center
05:46PM 41.2625 -76.4956 110° East 457 526 23,500 -1,815 Descending New York Center
05:47PM 41.2197 -76.3483 111° Southeast 434 499 21,700 -1,736 Descending New York Center
05:48PM 41.1842 -76.2158 110° East 423 487 20,000 -1,835 Descending New York Center
05:49PM 41.1469 -76.0694 109° East 399 459 18,000 -1,587 Descending New York Center
05:50PM 41.1092 -75.9344 110° East 388 447 16,800 -1,210 Descending New York Center
05:51PM 41.0789 -75.8164 109° East 382 440 15,600 -1,424 Descending New York Center
05:52PM 41.0411 -75.6761 110° East 376 433 14,000 -1,240 Descending New York Center
05:53PM 41.0064 -75.5525 110° East 370 426 13,100 -744 Descending New York Center
05:54PM 40.9717 -75.4319 111° Southeast 356 410 12,500 -992 Descending New York Center
05:55PM 40.9369 -75.3086 110° East 356 410 11,100 -1,240 Descending New York Center
05:56PM 40.9056 -75.1994 111° Southeast 336 387 10,000 -1,271 Descending New York Center
05:57PM 40.8800 -75.1047 110° East 310 357 8,600 -1,160 Descending New York Center
05:58PM 40.8503 -75.0039 111° Southeast 296 341 7,700 -934 Descending New York Center
05:59PM 40.8231 -74.8925 108° East 296 341 6,700 -857 Descending New York Center
06:00PM 40.8078 -74.7903 101° East 291 335 6,000 -356 Descending New York Center
06:01PM 40.7983 -74.7019 98° East 252 290 6,000  Level New York Center
06:02PM 40.7736 -74.6239 113° Southeast 237 273 6,000 -103 Level New York Center
06:02PM 40.7167 -74.6167 175° South 238 274 5,800 -517 Descending New York TRACON
06:03PM 40.6500 -74.6000 169° South 229 264 5,000 -400 Descending New York TRACON
06:04PM 40.5833 -74.5833 169° South 236 272 5,000 -50 Level New York TRACON
06:05PM 40.5167 -74.5667 169° South 234 269 4,900 -550 Descending New York TRACON
06:06PM 40.4500 -74.5333 159° South 235 270 3,900 -950 Descending New York TRACON
06:07PM 40.4000 -74.5000 153° Southeast 226 260 3,000 -450 Descending New York TRACON
06:08PM 40.3667 -74.4333 123° Southeast 238 274 3,000  Level New York TRACON
06:10PM 40.4167 -74.3333 57° Northeast 191 220 3,000  Level New York TRACON
06:11PM 40.4667 -74.3167 14° North 190 219 3,000  Level New York TRACON
06:12PM 40.5167 -74.2833 27° Northeast 193 222 3,000  Level New York TRACON

Login

Don't have an account? Register now (free) for customized features, flight alerts, and more!